Data for 05/30/2015

Time Sea-Level Adjusted Pressure Absolute Pressure Temperature Relative Humidity Dew Point   
(mb) (inHg) (mb) (inHg) (C) (F) (%) (C) (F)
00:05 1024 30.24 853 25.19 9.9 49.7 88 8 46.3
00:10 1024 30.24 853 25.19 10 50 88 8.2 46.7
00:15 1024 30.24 853 25.19 10.1 50.2 88 8.3 46.9
00:20 1024 30.24 853 25.19 10.1 50.2 89 8.4 47.2
00:25 1023 30.21 852 25.16 9.9 49.9 91 8.5 47.2
00:30 1023 30.21 852 25.16 9.7 49.5 91 8.4 47.1
00:35 1023 30.21 852 25.16 9.8 49.6 91 8.4 47.1
00:40 1023 30.21 852 25.16 9.7 49.4 91 8.3 47
00:45 1022 30.18 852 25.16 9.4 48.9 92 8.1 46.6
00:50 1022 30.18 851 25.13 9.3 48.7 92 8 46.3
00:55 1022 30.18 851 25.13 9.3 48.8 91 7.9 46.2
01:00 1022 30.18 851 25.13 9.5 49.1 89 7.9 46.1
01:05 1022 30.18 851 25.13 9.6 49.3 89 7.9 46.2
01:10 1022 30.18 851 25.13 9.7 49.4 89 7.9 46.2
01:15 1022 30.18 851 25.13 10 49.9 86 7.7 45.9
01:20 1022 30.18 851 25.13 10 50.1 87 8 46.3
01:25 1021 30.15 851 25.13 9.9 49.8 87 7.8 46
01:30 1021 30.15 851 25.13 9.9 49.7 86 7.7 45.8
01:35 1021 30.15 851 25.13 10 50 84 7.5 45.4
01:40 1021 30.15 850 25.1 10.2 50.4 82 7.4 45.3
01:45 1021 30.15 851 25.13 10.5 50.8 80 7.3 45.1
01:50 1021 30.15 851 25.13 10.7 51.3 80 7.4 45.2
01:55 1021 30.15 851 25.13 10.8 51.4 81 7.6 45.7
02:00 1021 30.15 850 25.1 10.4 50.8 82 7.6 45.6
02:05 1021 30.15 850 25.1 10.2 50.4 84 7.6 45.7
02:10 1021 30.15 850 25.1 10.1 50.1 85 7.6 45.7
02:15 1021 30.15 850 25.1 10 50 84 7.4 45.4
02:20 1021 30.15 850 25.1 10.1 50.1 83 7.4 45.3
02:25 1021 30.15 850 25.1 10.1 50.1 84 7.5 45.5
02:30 1021 30.15 850 25.1 10 49.9 84 7.4 45.3
02:35 1021 30.15 850 25.1 9.9 49.9 83 7.3 45.1
02:40 1021 30.15 850 25.1 10 49.9 83 7.2 45
02:45 1021 30.15 850 25.1 9.9 49.9 83 7.2 45
02:50 1021 30.15 850 25.1 10 49.9 83 7.2 44.9
02:55 1021 30.15 850 25.1 10 50 82 7.2 44.9
03:00 1021 30.15 850 25.1 10.1 50.1 81 7.1 44.7
03:05 1021 30.15 850 25.1 10.2 50.3 81 7.1 44.8
03:10 1021 30.15 850 25.1 10.3 50.5 81 7.1 44.7
03:15 1021 30.15 850 25.1 10.3 50.5 80 7 44.7
03:20 1021 30.15 850 25.1 10.3 50.5 81 7.2 44.9
03:25 1021 30.15 850 25.1 10.2 50.4 80 7 44.7
03:30 1021 30.15 850 25.1 10.3 50.5 80 7 44.7
03:35 1021 30.15 850 25.1 10.3 50.5 80 7.1 44.7
03:40 1021 30.15 850 25.1 10.3 50.5 80 7 44.5
03:45 1021 30.15 850 25.1 10.2 50.4 81 7.1 44.8
03:50 1021 30.15 850 25.1 10.2 50.4 80 7 44.7
03:55 1021 30.15 850 25.1 10.3 50.6 80 7 44.6
04:00 1021 30.15 850 25.1 10.3 50.6 81 7.1 44.8
04:05 1021 30.15 850 25.1 10.3 50.6 81 7.2 44.9
04:10 1021 30.15 850 25.1 10.4 50.7 80 7.2 44.9
04:15 1021 30.15 850 25.1 10.4 50.6 81 7.2 45
04:20 1021 30.15 850 25.1 10.3 50.5 82 7.3 45.2
04:25 1021 30.15 850 25.1 10.2 50.4 82 7.3 45.1
04:30 1021 30.15 850 25.1 10.2 50.3 82 7.3 45.2
04:35 1021 30.15 850 25.1 10.3 50.5 81 7.2 45
04:40 1020 30.12 850 25.1 10.3 50.5 82 7.3 45.2
04:45 1020 30.12 850 25.1 10.2 50.4 82 7.4 45.2
04:50 1020 30.12 849 25.07 10.3 50.5 82 7.3 45.2
04:55 1020 30.12 849 25.07 10.3 50.5 82 7.4 45.2
05:00 1020 30.12 849 25.07 10.2 50.4 83 7.4 45.3
05:05 1020 30.12 849 25.07 10.2 50.4 82 7.3 45.2
05:10 1020 30.12 849 25.07 10.3 50.5 83 7.5 45.4
05:15 1020 30.12 849 25.07 10.2 50.4 82 7.4 45.3
05:20 1020 30.12 849 25.07 10.2 50.3 84 7.5 45.6
05:25 1020 30.12 849 25.07 10.2 50.3 83 7.4 45.3
05:30 1020 30.12 849 25.07 10.3 50.5 82 7.4 45.3
05:35 1020 30.12 849 25.07 10.4 50.6 82 7.4 45.4
05:40 1020 30.12 849 25.07 10.5 50.8 82 7.5 45.5
05:45 1020 30.12 849 25.07 10.5 50.8 82 7.5 45.5
05:50 1020 30.12 849 25.07 10.5 50.9 81 7.4 45.2
05:55 1020 30.12 849 25.07 10.6 51 80 7.3 45.2
06:00 1020 30.12 849 25.07 10.8 51.4 79 7.3 45.1
06:05 1020 30.12 849 25.07 10.9 51.7 78 7.3 45.1
06:10 1020 30.12 849 25.07 11.1 51.9 77 7.2 44.9
06:15 1020 30.12 849 25.07 11.2 52.1 76 7.2 44.9
06:20 1020 30.12 849 25.07 11.3 52.4 75 7.1 44.8
06:25 1020 30.12 849 25.07 11.7 53 74 7.2 44.9
06:30 1020 30.12 849 25.07 12.2 53.9 72 7.2 45
06:35 1020 30.12 849 25.07 12.5 54.4 71 7.5 45.4
06:40 1020 30.12 849 25.07 12.4 54.4 73 7.8 46
06:45 1020 30.12 849 25.07 12.3 54.1 74 7.7 45.9
06:50 1020 30.12 849 25.07 12.2 54 74 7.8 46.1
06:55 1020 30.12 849 25.07 12.2 54 73 7.5 45.5
07:00 1020 30.12 849 25.07 12.3 54.1 73 7.5 45.6
07:05 1020 30.12 849 25.07 12.5 54.5 73 7.7 45.9
07:10 1020 30.12 849 25.07 13 55.3 70 7.7 45.8
07:15 1020 30.12 849 25.07 13.6 56.4 68 7.9 46.2
07:20 1020 30.12 849 25.07 13.6 56.4 68 7.9 46.2
07:25 1020 30.12 849 25.07 13.8 56.8 68 8.1 46.5
07:30 1020 30.12 849 25.07 13.8 56.8 69 8.2 46.8
07:35 1020 30.12 849 25.07 14.1 57.3 65 7.8 46
07:40 1020 30.12 849 25.07 14.2 57.5 67 8.2 46.8
07:45 1020 30.12 849 25.07 14.1 57.3 66 7.9 46.2
07:50 1020 30.12 849 25.07 14.5 58 64 7.8 46.1
07:55 1020 30.12 849 25.07 15.1 59.1 63 8.2 46.7
08:00 1020 30.12 849 25.07 15 58.9 63 7.9 46.3
08:05 1020 30.12 849 25.07 15 58.9 62 7.9 46.1
08:10 1020 30.12 849 25.07 15.2 59.4 61 8 46.3
08:15 1020 30.12 849 25.07 15.4 59.7 60 7.6 45.7
08:20 1020 30.12 849 25.07 15.8 60.5 58 7.8 46
08:25 1020 30.12 849 25.07 16.6 61.8 57 8.1 46.7
08:30 1020 30.12 849 25.07 16.9 62.4 55 8 46.4
08:35 1020 30.12 849 25.07 16.9 62.4 54 7.7 45.9
08:40 1020 30.12 849 25.07 17.4 63.2 53 7.8 46
08:45 1020 30.12 849 25.07 17.3 63.1 53 7.6 45.7
08:50 1019 30.09 849 25.07 17.1 62.7 57 8.5 47.2
08:55 1019 30.09 849 25.07 17.2 63 55 8.1 46.6
09:00 1019 30.09 849 25.07 18.1 64.6 50 7.7 45.9
09:05 1019 30.09 849 25.07 18.3 64.9 50 7.7 45.8
09:10 1019 30.09 849 25.07 19.1 66.4 46 7.4 45.4
09:15 1019 30.09 849 25.07 19.7 67.5 45 7.6 45.7
09:20 1019 30.09 849 25.07 19.5 67 45 7.4 45.3
09:25 1019 30.09 848 25.04 19.3 66.8 43 6.5 43.6
09:30 1019 30.09 848 25.04 19 66.1 44 6.5 43.7
09:35 1019 30.09 849 25.07 19.8 67.7 43 6.9 44.4
09:40 1019 30.09 849 25.07 20.2 68.4 39 6 42.7
09:45 1019 30.09 848 25.04 21.1 69.9 38 6.4 43.6
09:50 1019 30.09 849 25.07 21.3 70.3 38 6.7 44
09:55 1019 30.09 849 25.07 21.5 70.8 36 6 42.8
10:00 1019 30.09 849 25.07 21.9 71.4 36 6.5 43.7
10:05 1019 30.09 849 25.07 21.6 70.8 42 8.3 47
10:10 1019 30.09 848 25.04 21.6 70.8 42 8.4 47.2
10:15 1019 30.09 848 25.04 21.2 70.1 45 8.8 47.9
10:20 1019 30.09 848 25.04 20.4 68.7 49 9.4 48.8
10:25 1019 30.09 848 25.04 20.2 68.4 48 9 48.3
10:30 1019 30.09 848 25.04 20.8 69.5 45 8.6 47.4
10:35 1019 30.09 849 25.07 21.5 70.7 45 9.3 48.8
10:40 1019 30.09 849 25.07 21.2 70.1 50 10.5 50.9
10:45 1019 30.09 849 25.07 20.6 69.1 47 9.2 48.5
10:50 1019 30.09 849 25.07 19.7 67.5 53 9.9 49.8
10:55 1019 30.09 849 25.07 19.6 67.2 53 9.8 49.6
11:00 1019 30.09 849 25.07 19.7 67.4 53 9.9 49.7
11:05 1019 30.09 849 25.07 19.2 66.5 55 10.1 50.1
11:10 1019 30.09 849 25.07 18.7 65.7 56 10 50
11:15 1019 30.09 849 25.07 18.2 64.8 58 9.8 49.7
11:20 1020 30.12 849 25.07 18.1 64.6 57 9.7 49.5
11:25 1020 30.12 849 25.07 18.1 64.5 61 10.5 50.9
11:30 1020 30.12 849 25.07 17.8 64 66 11.4 52.5
11:35 1020 30.12 849 25.07 17.3 63.2 66 11 51.8
11:40 1020 30.12 849 25.07 17.2 63 62 10 50
11:45 1020 30.12 849 25.07 17.6 63.6 60 9.8 49.7
11:50 1020 30.12 849 25.07 17.8 64 60 10 50
11:55 1020 30.12 849 25.07 18.1 64.5 58 9.7 49.5
12:00 1020 30.12 849 25.07 18.7 65.6 56 9.8 49.6
12:05 1020 30.12 849 25.07 19.2 66.6 54 9.9 49.8
12:10 1020 30.12 849 25.07 19.3 66.8 54 10 50.1
12:15 1020 30.12 849 25.07 19 66.2 55 9.9 49.8
12:20 1020 30.12 849 25.07 18.9 66 55 9.7 49.4
12:25 1020 30.12 849 25.07 19 66.2 53 9.3 48.7
12:30 1020 30.12 849 25.07 19.1 66.3 56 10.2 50.4
12:35 1020 30.12 849 25.07 18.6 65.4 56 9.7 49.5
12:40 1020 30.12 849 25.07 18.8 65.9 49 8 46.5
12:45 1020 30.12 849 25.07 19.4 66.9 52 9.4 48.9
12:50 1020 30.12 849 25.07 19.3 66.7 47 7.7 45.9
12:55 1020 30.12 849 25.07 19.3 66.8 39 5 41
13:00 1020 30.12 849 25.07 19 66.1 40 5.2 41.3
13:05 1020 30.12 849 25.07 18.6 65.5 39 4.4 39.9
13:10 1020 30.12 849 25.07 18.7 65.7 41 5.3 41.6
13:15 1020 30.12 849 25.07 18.6 65.4 41 5.4 41.7
13:20 1020 30.12 849 25.07 18.4 65.1 39 4.2 39.6
13:25 1020 30.12 849 25.07 18.3 65 40 4.5 40.2
13:30 1020 30.12 849 25.07 18.2 64.7 40 4.6 40.2
13:35 1020 30.12 849 25.07 18 64.5 40 4.5 40.1
13:40 1020 30.12 849 25.07 18 64.3 41 4.5 40.2
13:45 1020 30.12 849 25.07 18 64.3 43 5.2 41.3
13:50 1020 30.12 849 25.07 18 64.4 42 5.1 41.2
13:55 1020 30.12 849 25.07 18.1 64.6 44 5.8 42.5
14:00 1020 30.12 849 25.07 18.1 64.5 43 5.4 41.7
14:05 1020 30.12 849 25.07 18.2 64.8 46 6.4 43.5
14:10 1020 30.12 849 25.07 18.1 64.6 42 5.2 41.4
14:15 1020 30.12 849 25.07 17.8 64 44 5.5 41.8
14:20 1020 30.12 849 25.07 17.9 64.3 43 5.3 41.5
14:25 1020 30.12 849 25.07 18 64.4 42 5.1 41.1
14:30 1020 30.12 849 25.07 17.9 64.2 41 4.6 40.3
14:35 1020 30.12 849 25.07 18.1 64.5 40 4.5 40.2
14:40 1020 30.12 849 25.07 18.1 64.5 42 5 41.1
14:45 1020 30.12 849 25.07 17.7 63.8 44 5.3 41.6
14:50 1020 30.12 849 25.07 17.7 63.8 43 5 41
14:55 1020 30.12 849 25.07 17.8 64.1 45 6 42.7
15:00 1020 30.12 849 25.07 17.8 64 47 6.4 43.5
15:05 1020 30.12 849 25.07 17.6 63.6 49 6.8 44.3
15:10 1019 30.09 849 25.07 17.6 63.7 51 7.5 45.4
15:15 1019 30.09 849 25.07 17.7 63.8 48 6.7 44
15:20 1019 30.09 849 25.07 17.8 64 46 6.1 42.9
15:25 1019 30.09 848 25.04 17.8 64 45 5.8 42.5
15:30 1019 30.09 848 25.04 17.5 63.4 47 6.2 43.2
15:35 1019 30.09 848 25.04 17.6 63.7 47 6.3 43.3
15:40 1019 30.09 848 25.04 17.7 63.9 49 7 44.7
15:45 1019 30.09 848 25.04 18.1 64.6 43 5.6 42.1
15:50 1019 30.09 848 25.04 18.1 64.6 43 5.3 41.6
15:55 1019 30.09 848 25.04 18.3 64.9 43 5.6 42.1
16:00 1019 30.09 848 25.04 18.7 65.6 43 6.1 42.9
16:05 1019 30.09 848 25.04 19.1 66.4 42 5.9 42.6
16:10 1019 30.09 848 25.04 19.3 66.7 42 6.2 43.1
16:15 1019 30.09 848 25.04 19 66.1 44 6.5 43.7
16:20 1019 30.09 848 25.04 18.7 65.6 44 6.2 43.2
16:25 1019 30.09 848 25.04 18.6 65.4 44 6.2 43.1
16:30 1019 30.09 848 25.04 18.2 64.8 45 6.2 43.2
16:35 1019 30.09 848 25.04 18 64.3 45 6 42.8
16:40 1019 30.09 848 25.04 18.1 64.6 47 6.8 44.2
16:45 1019 30.09 848 25.04 18.1 64.6 44 5.9 42.7
16:50 1019 30.09 848 25.04 18.2 64.7 46 6.4 43.6
16:55 1019 30.09 848 25.04 18.1 64.5 48 7.1 44.9
17:00 1019 30.09 848 25.04 17.9 64.3 48 7 44.6
17:05 1019 30.09 848 25.04 17.8 64.1 49 7 44.6
17:10 1019 30.09 848 25.04 17.7 63.9 48 6.7 44.1
17:15 1019 30.09 848 25.04 17.7 63.9 48 6.8 44.2
17:20 1019 30.09 848 25.04 17.7 63.9 48 6.6 43.8
17:25 1019 30.09 848 25.04 17.7 63.9 48 6.8 44.2
17:30 1018 30.06 848 25.04 17.6 63.7 48 6.6 43.8
17:35 1018 30.06 848 25.04 17.7 63.8 48 6.5 43.7
17:40 1018 30.06 848 25.04 17.6 63.7 49 6.9 44.5
17:45 1018 30.06 848 25.04 17.4 63.4 50 7.1 44.9
17:50 1018 30.06 848 25.04 17.3 63.1 50 6.8 44.3
17:55 1018 30.06 847 25.01 17.3 63.1 50 6.9 44.5
18:00 1018 30.06 847 25.01 17.5 63.4 48 6.5 43.8
18:05 1018 30.06 847 25.01 17.4 63.3 49 6.7 44
18:10 1018 30.06 847 25.01 17.4 63.3 49 6.8 44.2
18:15 1018 30.06 847 25.01 17.3 63.2 50 6.8 44.3
18:20 1018 30.06 847 25.01 17.2 63 49 6.6 43.9
18:25 1018 30.06 847 25.01 17.2 62.9 51 6.9 44.4
18:30 1018 30.06 847 25.01 17.3 63.1 50 6.9 44.5
18:35 1018 30.06 847 25.01 17.2 63 50 6.9 44.4
18:40 1018 30.06 847 25.01 17.2 63 50 6.9 44.5
18:45 1018 30.06 847 25.01 17.3 63.2 49 6.6 44
18:50 1018 30.06 847 25.01 17.4 63.3 50 7 44.6
18:55 1018 30.06 847 25.01 17.3 63.1 52 7.5 45.5
19:00 1018 30.06 847 25.01 17.2 62.9 54 7.7 45.9
19:05 1018 30.06 847 25.01 17.1 62.8 53 7.6 45.6
19:10 1018 30.06 847 25.01 17.1 62.8 54 7.7 45.9
19:15 1018 30.06 848 25.04 17.1 62.7 53 7.6 45.7
19:20 1018 30.06 848 25.04 16.9 62.5 54 7.6 45.7
19:25 1018 30.06 847 25.01 16.7 62.1 55 7.8 46
19:30 1018 30.06 847 25.01 16.6 61.8 58 8.3 46.9
19:35 1018 30.06 847 25.01 16.3 61.4 58 8 46.4
19:40 1018 30.06 848 25.04 16.3 61.4 58 8.2 46.7
19:45 1018 30.06 848 25.04 16.3 61.4 58 8.1 46.5
19:50 1018 30.06 848 25.04 16.4 61.5 57 8 46.4
19:55 1018 30.06 848 25.04 16.4 61.5 58 8.1 46.5
20:00 1019 30.09 848 25.04 16.3 61.4 58 8.2 46.7
20:05 1019 30.09 848 25.04 16.2 61.1 59 8.1 46.6
20:10 1019 30.09 848 25.04 16 60.8 59 8 46.3
20:15 1019 30.09 848 25.04 15.9 60.6 61 8.4 47.1
20:20 1019 30.09 848 25.04 15.7 60.2 65 9.2 48.5
20:25 1019 30.09 848 25.04 15.3 59.5 66 9 48.2
20:30 1019 30.09 848 25.04 15 59 67 8.9 48
20:35 1019 30.09 848 25.04 14.9 58.8 66 8.7 47.6
20:40 1019 30.09 848 25.04 14.9 58.8 66 8.7 47.7
20:45 1019 30.09 848 25.04 14.9 58.7 66 8.5 47.4
20:50 1019 30.09 848 25.04 14.8 58.7 66 8.5 47.4
20:55 1019 30.09 848 25.04 14.9 58.8 67 8.8 47.9
21:00 1019 30.09 848 25.04 15.1 59.1 65 8.6 47.4
21:05 1019 30.09 848 25.04 15.1 59.2 64 8.4 47.1
21:10 1019 30.09 848 25.04 14.8 58.7 65 8.5 47.3
21:15 1019 30.09 848 25.04 14.7 58.5 66 8.4 47.1
21:20 1019 30.09 849 25.07 14.7 58.5 67 8.7 47.6
21:25 1020 30.12 849 25.07 14.6 58.2 68 8.7 47.6
21:30 1020 30.12 849 25.07 14.4 57.9 71 9.3 48.7
21:35 1020 30.12 849 25.07 14.3 57.8 70 9 48.1
21:40 1020 30.12 849 25.07 14.1 57.4 74 9.5 49.1
21:45 1020 30.12 849 25.07 13.8 56.8 76 9.6 49.4
21:50 1020 30.12 849 25.07 13.5 56.2 76 9.4 48.9
21:55 1020 30.12 849 25.07 13.3 55.9 77 9.3 48.8
22:00 1020 30.12 849 25.07 13.3 55.9 74 8.8 47.9
22:05 1020 30.12 849 25.07 13.4 56.2 74 8.9 48
22:10 1020 30.12 849 25.07 13.4 56.2 72 8.5 47.3
22:15 1020 30.12 849 25.07 13.6 56.6 71 8.6 47.5
22:20 1020 30.12 849 25.07 13.6 56.5 72 8.7 47.6
22:25 1020 30.12 849 25.07 13.5 56.3 73 8.7 47.7
22:30 1020 30.12 849 25.07 13.4 56.1 74 8.9 48
22:35 1020 30.12 849 25.07 13.2 55.7 76 9 48.2
22:40 1020 30.12 849 25.07 13 55.4 78 9.2 48.6
22:45 1020 30.12 849 25.07 12.8 55 78 9.1 48.4
22:50 1020 30.12 849 25.07 12.7 54.9 78 9.1 48.4
22:55 1020 30.12 849 25.07 12.7 54.8 78 8.9 48
23:00 1020 30.12 849 25.07 12.7 54.9 78 9 48.2
23:05 1020 30.12 849 25.07 12.6 54.6 79 9 48.2
23:10 1020 30.12 849 25.07 12.4 54.2 80 9 48.2
23:15 1020 30.12 849 25.07 12.3 54.1 80 8.9 48
23:20 1020 30.12 849 25.07 12.3 54.2 78 8.7 47.6
23:25 1020 30.12 849 25.07 12.5 54.4 77 8.6 47.5
23:30 1020 30.12 849 25.07 12.3 54.1 78 8.6 47.5
23:35 1020 30.12 849 25.07 12.1 53.8 79 8.6 47.6
23:40 1020 30.12 849 25.07 11.9 53.4 81 8.7 47.7
23:45 1020 30.12 849 25.07 11.6 53 82 8.8 47.8
23:50 1020 30.12 849 25.07 11.5 52.6 82 8.5 47.4
23:55 1020 30.12 849 25.07 11.5 52.6 82 8.5 47.3
24:00 1020 30.12 849 25.07 11.3 52.4 83 8.5 47.3